Mosquitoville, Vermont
Current Conditions -  °F | °C
As of 7:17 AM on Wednesday 28 Jan 2015 (Local Time) from KMPV Reporting Station
Overcast Overcast  
Wind Chill: -5°   Ceiling: 2700
Heat Index:   Visibility: 10mi
Dew Point: -2°   Wind: 5mph
Humidity: 76%   Direction: 360°N
Pressure: 29.98"   Gusts: NA
Location:  44.1959°N, 72.0788°W
Report Text: KMPV 281217Z AUTO 36004KT 10SM BKN027 OVC070 M16/M19 A2998 RMK AO2 T11561189
Loading
Personal Weather Stations






























Interactive Weather Map New forecast layout! Learn more

10-Day Weather Forecast

Advertisements
Track Severe Weather on mobile